Terminal Aerodrome Forecast
Issued by NWS

Home | Current Version | Previous Version | Text Only | Print | Product List | Glossary On
Versions: 1 2 3 4 5 6 7 8 9 10 11 12
000
FTUS45 KRIW 291724
TAFPNA
TAF
KPNA 291724Z 2918/3018 VRB05KT P6SM SCT100 BKN200
     FM292000 29009KT P6SM VCTS SCT060CB BKN090
     FM300100 30008KT P6SM VCSH SCT060 BKN080
     FM300600 VRB05KT P6SM BKN080
     FM301500 29008KT P6SM SKC
      AMD LTD TO CLD VIS AND WIND=

USA.gov is the U.S. government's official web portal to all federal, state and local government web resources and services.